Time;durP1;ratioP1;P1;durP2;ratioP2;P2;SDS_P1;SDS_P2;PMS_P1;PMS_P2;Temp;Humidity;BMP_temperature;BMP_pressure;BME280_temperature;BME280_humidity;BME280_pressure;Samples;Min_cycle;Max_cycle;Signal;HPM_P1;HPM_P2
2023/08/21 00:00:00;;;;;;;16.30;14.80;;;;;;;23.86;83.26;101045.08;105829;1263;101286;-82
2023/08/21 00:03:06;;;;;;;17.10;15.10;;;;;;;23.82;83.45;101042.98;105903;1258;102346;-83
2023/08/21 00:05:52;;;;;;;17.00;15.20;;;;;;;23.78;83.80;101045.04;105921;1258;99203;-84
2023/08/21 00:08:38;;;;;;;16.90;15.30;;;;;;;23.75;84.02;101045.08;105781;1264;97342;-83
2023/08/21 00:11:23;;;;;;;17.70;16.10;;;;;;;23.71;84.42;101043.50;105850;1258;97149;-83
2023/08/21 00:14:08;;;;;;;16.60;14.90;;;;;;;23.67;84.70;101040.20;105843;1257;100124;-84
2023/08/21 00:16:54;;;;;;;17.40;15.50;;;;;;;23.65;84.82;101036.17;106007;1260;100756;-83
2023/08/21 00:19:39;;;;;;;18.30;15.50;;;;;;;23.63;84.79;101034.91;105899;1260;97864;-84
2023/08/21 00:22:25;;;;;;;19.20;15.90;;;;;;;23.61;84.75;101037.07;105946;1257;96552;-83
2023/08/21 00:25:10;;;;;;;17.70;15.50;;;;;;;23.60;85.05;101039.38;106079;1257;97178;-84
2023/08/21 00:27:55;;;;;;;17.90;16.10;;;;;;;23.60;85.52;101036.58;105893;1258;100728;-84
2023/08/21 00:30:42;;;;;;;18.40;16.60;;;;;;;23.56;85.87;101035.79;106005;1260;99117;-83
2023/08/21 00:33:28;;;;;;;16.50;15.00;;;;;;;23.52;85.84;101038.00;105819;1257;97913;-83
2023/08/21 00:36:14;;;;;;;18.20;16.20;;;;;;;23.51;85.87;101038.41;105946;1260;97291;-83
2023/08/21 00:38:59;;;;;;;17.70;16.00;;;;;;;23.51;85.98;101039.18;105962;1257;97111;-84
2023/08/21 00:41:44;;;;;;;18.00;16.10;;;;;;;23.49;86.28;101037.64;106076;1258;100878;-83
2023/08/21 00:44:31;;;;;;;19.30;16.40;;;;;;;23.47;86.26;101038.88;105924;1257;131468;-83
2023/08/21 00:47:17;;;;;;;18.10;16.20;;;;;;;23.45;86.66;101047.62;105891;1264;97850;-83
2023/08/21 00:50:04;;;;;;;18.20;16.40;;;;;;;23.43;86.61;101051.86;106040;1258;96712;-82
2023/08/21 00:52:50;;;;;;;19.70;16.50;;;;;;;23.39;86.70;101043.08;105780;1261;97142;-85
2023/08/21 00:55:37;;;;;;;17.80;16.10;;;;;;;23.37;86.88;101045.08;106023;1257;100077;-84
2023/08/21 00:58:22;;;;;;;17.80;16.00;;;;;;;23.36;86.75;101045.34;105764;1258;99196;-82
2023/08/21 01:01:08;;;;;;;17.70;15.90;;;;;;;23.34;86.70;101039.86;105826;1261;99020;-81
2023/08/21 01:03:53;;;;;;;23.10;15.40;;;;;;;23.32;86.89;101040.59;105935;1258;96692;-84
2023/08/21 01:06:39;;;;;;;18.00;16.00;;;;;;;23.29;86.77;101041.10;105841;1257;97127;-82
2023/08/21 01:09:36;;;;;;;17.20;15.70;;;;;;;23.26;87.09;101041.77;106868;1260;101269;-84
2023/08/21 01:12:50;;;;;;;17.70;15.90;;;;;;;23.24;87.26;101044.17;105880;1258;99144;-82
2023/08/21 01:15:38;;;;;;;17.40;15.70;;;;;;;23.19;87.29;101046.91;105936;1260;97800;-84
2023/08/21 01:18:26;;;;;;;17.60;15.70;;;;;;;23.16;87.57;101042.50;105847;1261;97985;-84
2023/08/21 01:21:12;;;;;;;17.20;15.20;;;;;;;23.12;87.53;101040.98;106261;1257;96521;-82
2023/08/21 01:23:57;;;;;;;19.00;16.00;;;;;;;23.06;87.34;101037.81;105830;1260;100078;-82
2023/08/21 01:26:43;;;;;;;17.30;15.50;;;;;;;23.02;87.55;101043.45;105703;1258;99086;-83
2023/08/21 01:29:29;;;;;;;16.90;15.10;;;;;;;22.98;87.67;101045.14;105838;1257;97825;-83
2023/08/21 01:32:29;;;;;;;18.60;15.90;;;;;;;22.93;87.78;101040.56;105669;1262;96607;-83
2023/08/21 01:35:15;;;;;;;17.10;15.40;;;;;;;22.89;87.99;101044.63;105854;1257;96724;-83
2023/08/21 01:38:02;;;;;;;17.70;15.90;;;;;;;22.84;88.40;101048.94;105906;1257;100101;-85
2023/08/21 01:40:47;;;;;;;17.60;15.80;;;;;;;22.79;88.42;101043.38;106618;1257;99213;-83
2023/08/21 01:43:33;;;;;;;16.70;15.00;;;;;;;22.77;88.54;101038.10;105976;1257;98432;-81
2023/08/21 01:46:18;;;;;;;17.70;15.90;;;;;;;22.74;88.30;101037.58;105689;1257;96513;-84
2023/08/21 01:49:04;;;;;;;16.70;15.10;;;;;;;22.73;88.37;101034.98;105880;1257;97153;-83
2023/08/21 01:51:50;;;;;;;16.40;14.90;;;;;;;22.70;88.41;101036.55;105960;1257;100110;-82
2023/08/21 01:54:35;;;;;;;20.60;16.90;;;;;;;22.68;88.60;101040.02;106012;1257;99972;-82
2023/08/21 01:57:21;;;;;;;18.10;15.70;;;;;;;22.68;89.04;101038.60;105574;1257;98810;-82
2023/08/21 02:00:08;;;;;;;17.20;15.60;;;;;;;22.67;89.26;101036.67;105773;1257;97339;-83
2023/08/21 02:03:00;;;;;;;19.20;15.80;;;;;;;22.65;88.96;101035.58;105817;1260;96582;-83
2023/08/21 02:05:46;;;;;;;16.50;14.90;;;;;;;22.62;89.02;101035.53;105810;1263;101338;-82
2023/08/21 02:08:33;;;;;;;20.70;16.00;;;;;;;22.60;89.15;101039.83;105793;1262;99272;-82
2023/08/21 02:11:18;;;;;;;18.30;16.10;;;;;;;22.58;89.46;101040.55;105637;1260;99636;-83
2023/08/21 02:14:04;;;;;;;18.60;16.10;;;;;;;22.57;89.80;101039.09;105685;1257;97368;-83
2023/08/21 02:16:50;;;;;;;17.20;15.50;;;;;;;22.56;89.79;101043.40;105675;1261;97230;-84
2023/08/21 02:19:35;;;;;;;18.20;16.40;;;;;;;22.54;89.95;101043.16;105768;1264;100055;-83
2023/08/21 02:22:21;;;;;;;19.50;16.10;;;;;;;22.52;89.87;101041.88;105848;1264;100693;-81
2023/08/21 02:25:07;;;;;;;18.50;16.30;;;;;;;22.50;90.19;101042.95;106018;1258;98781;-82
2023/08/21 02:27:52;;;;;;;16.80;15.20;;;;;;;22.49;90.26;101044.51;105888;1257;96563;-82
2023/08/21 02:30:41;;;;;;;18.80;14.90;;;;;;;22.45;90.60;101040.36;105815;1257;96610;-81
2023/08/21 02:33:27;;;;;;;19.20;15.90;;;;;;;22.42;90.86;101035.20;107589;1257;100071;-81
2023/08/21 02:36:12;;;;;;;19.60;16.60;;;;;;;22.41;91.10;101031.14;105919;1256;100416;-86
2023/08/21 02:38:58;;;;;;;17.20;15.20;;;;;;;22.39;90.94;101031.77;105650;1257;97737;-81
2023/08/21 02:41:43;;;;;;;21.80;16.60;;;;;;;22.35;90.98;101027.46;105994;1258;96706;-84
2023/08/21 02:44:29;;;;;;;18.30;16.40;;;;;;;22.33;91.17;101030.64;105900;1257;97251;-82
2023/08/21 02:47:14;;;;;;;17.10;15.30;;;;;;;22.31;91.15;101026.75;105735;1258;100069;-81
2023/08/21 02:50:00;;;;;;;17.00;15.10;;;;;;;22.29;90.80;101025.21;105830;1261;100978;-83
2023/08/21 02:52:45;;;;;;;16.30;14.60;;;;;;;22.28;90.86;101022.73;105904;1257;97793;-83
2023/08/21 02:55:31;;;;;;;19.00;16.10;;;;;;;22.27;90.77;101023.32;105827;1258;96952;-83
2023/08/21 02:58:17;;;;;;;16.50;14.10;;;;;;;22.26;90.78;101026.48;105945;1260;97080;-82
2023/08/21 03:01:02;;;;;;;16.60;14.40;;;;;;;22.24;90.89;101022.95;105874;1260;100596;-82
2023/08/21 03:03:48;;;;;;;16.50;14.90;;;;;;;22.21;90.79;101021.11;105698;1260;99221;-82
2023/08/21 03:06:34;;;;;;;17.30;15.10;;;;;;;22.15;90.63;101021.48;105946;1257;98213;-82
2023/08/21 03:09:19;;;;;;;17.20;15.30;;;;;;;22.10;90.57;101019.49;105842;1263;96551;-82
2023/08/21 03:12:05;;;;;;;17.30;15.60;;;;;;;22.05;90.83;101022.73;105816;1260;96561;-81
2023/08/21 03:14:53;;;;;;;16.90;15.20;;;;;;;21.98;90.80;101028.88;105851;1261;100573;-82
2023/08/21 03:17:39;;;;;;;14.00;12.70;;;;;;;21.92;90.77;101037.29;105736;1258;99170;-82
2023/08/21 03:20:24;;;;;;;17.60;13.20;;;;;;;21.84;90.37;101045.67;106083;1257;98983;-85
2023/08/21 03:23:09;;;;;;;16.20;14.50;;;;;;;21.76;90.64;101043.83;105971;1258;96528;-81
2023/08/21 03:25:55;;;;;;;15.60;14.00;;;;;;;21.74;91.12;101044.52;106494;1260;97877;-85
2023/08/21 03:28:41;;;;;;;16.20;14.50;;;;;;;21.74;91.34;101043.65;106123;1273;100852;-82
2023/08/21 03:31:27;;;;;;;18.60;16.70;;;;;;;21.75;91.72;101049.61;106026;1257;100318;-81
2023/08/21 03:34:12;;;;;;;16.70;15.00;;;;;;;21.74;91.97;101047.61;105822;1259;97712;-82
2023/08/21 03:36:59;;;;;;;20.30;15.90;;;;;;;21.72;92.43;101049.94;106005;1260;96727;-82
2023/08/21 03:39:46;;;;;;;19.20;17.20;;;;;;;21.71;92.57;101052.54;106004;1257;97189;-82
2023/08/21 03:42:32;;;;;;;17.80;16.10;;;;;;;21.70;92.75;101049.73;106030;1263;99985;-85
2023/08/21 03:45:19;;;;;;;19.60;16.10;;;;;;;21.70;93.12;101043.04;106184;1260;100457;-84
2023/08/21 03:48:05;;;;;;;17.50;15.70;;;;;;;21.72;93.20;101039.67;106008;1260;97752;-82
2023/08/21 03:50:50;;;;;;;18.90;16.70;;;;;;;21.73;93.47;101037.88;105884;1255;97832;-83
2023/08/21 03:53:37;;;;;;;19.80;17.70;;;;;;;21.74;93.64;101040.75;105930;1257;97066;-83
2023/08/21 03:56:23;;;;;;;18.80;16.70;;;;;;;21.74;93.54;101047.67;105826;1255;99982;-81
2023/08/21 03:59:08;;;;;;;18.60;16.70;;;;;;;21.72;93.48;101048.35;106184;1258;100368;-82
2023/08/21 04:01:54;;;;;;;18.50;16.00;;;;;;;21.71;93.46;101047.84;106201;1256;98377;-82
2023/08/21 04:04:40;;;;;;;19.90;16.50;;;;;;;21.70;93.78;101049.25;106040;1257;96576;-82
2023/08/21 04:07:26;;;;;;;18.20;16.30;;;;;;;21.67;93.80;101055.11;106022;1255;97876;-82
2023/08/21 04:10:11;;;;;;;17.30;15.60;;;;;;;21.65;93.74;101062.21;106142;1256;100767;-84
2023/08/21 04:12:58;;;;;;;18.00;16.10;;;;;;;21.64;94.14;101058.25;106160;1260;99135;-81
2023/08/21 04:15:45;;;;;;;20.50;16.90;;;;;;;21.62;94.44;101052.83;106070;1259;98619;-83
2023/08/21 04:18:31;;;;;;;19.20;16.30;;;;;;;21.62;94.73;101048.95;106122;1258;96708;-82
2023/08/21 04:21:16;;;;;;;18.10;16.20;;;;;;;21.62;94.96;101046.89;105897;1257;96570;-82
2023/08/21 04:24:01;;;;;;;17.70;15.90;;;;;;;21.63;94.96;101051.15;106162;1258;100126;-83
2023/08/21 04:26:47;;;;;;;17.70;16.00;;;;;;;21.65;95.39;101055.13;105963;1258;99226;-82
2023/08/21 04:29:32;;;;;;;18.60;16.20;;;;;;;21.67;95.67;101058.42;106126;1257;97749;-82
2023/08/21 04:32:17;;;;;;;19.50;17.40;;;;;;;21.67;96.20;101058.36;106331;1256;96611;-83
2023/08/21 04:35:05;;;;;;;17.80;16.00;;;;;;;21.65;96.10;101052.48;106168;1257;96436;-82
2023/08/21 04:37:51;;;;;;;17.90;16.10;;;;;;;21.63;96.30;101050.77;106028;1260;101274;-82
2023/08/21 04:40:37;;;;;;;17.70;15.60;;;;;;;21.63;96.67;101052.52;105867;1261;100759;-84
2023/08/21 04:43:23;;;;;;;19.10;16.60;;;;;;;21.64;96.97;101059.02;106206;1257;97842;-83
2023/08/21 04:46:09;;;;;;;16.40;14.90;;;;;;;21.65;97.33;101064.10;106185;1257;96870;-82
2023/08/21 04:48:56;;;;;;;19.90;15.70;;;;;;;21.66;97.45;101069.14;105994;1257;97190;-83
2023/08/21 04:51:42;;;;;;;19.40;17.40;;;;;;;21.68;97.31;101066.40;106145;1260;101435;-82
2023/08/21 04:54:28;;;;;;;17.90;16.10;;;;;;;21.69;97.75;101063.35;105896;1257;100788;-82
2023/08/21 04:57:13;;;;;;;20.80;18.40;;;;;;;21.68;97.90;101060.71;105910;1257;97823;-82
2023/08/21 04:59:59;;;;;;;19.40;17.40;;;;;;;21.67;97.87;101062.66;105988;1258;97044;-82
2023/08/21 05:02:49;;;;;;;21.90;17.30;;;;;;;21.68;98.22;101063.51;106225;1257;96614;-82
2023/08/21 05:05:36;;;;;;;21.00;18.90;;;;;;;21.72;98.38;101065.96;106184;1257;99898;-84
2023/08/21 05:08:26;;;;;;;19.70;17.70;;;;;;;21.75;98.25;101063.73;105991;1260;100402;-83
2023/08/21 05:11:11;;;;;;;18.90;17.10;;;;;;;21.73;98.53;101066.86;106041;1257;99043;-84
2023/08/21 05:13:58;;;;;;;20.00;17.80;;;;;;;21.72;98.70;101065.20;105880;1258;96608;-83
2023/08/21 05:16:45;;;;;;;22.90;18.40;;;;;;;21.71;98.57;101069.00;105739;1257;97137;-84
2023/08/21 05:19:30;;;;;;;20.10;17.90;;;;;;;21.73;99.06;101077.44;106037;1263;100714;-85
2023/08/21 05:22:16;;;;;;;20.20;18.20;;;;;;;21.76;99.55;101074.55;106212;1257;100470;-82
2023/08/21 05:25:01;;;;;;;18.90;16.90;;;;;;;21.79;99.34;101070.11;106125;1257;99103;-83
2023/08/21 05:27:47;;;;;;;21.90;18.20;;;;;;;21.82;99.60;101074.12;106080;1260;96606;-83
2023/08/21 05:30:32;;;;;;;21.10;18.80;;;;;;;21.88;99.97;101083.65;106001;1257;96599;-83
2023/08/21 05:33:18;;;;;;;22.00;19.00;;;;;;;21.92;99.97;101094.46;105989;1257;100587;-83
2023/08/21 05:36:05;;;;;;;20.40;18.40;;;;;;;21.97;100.00;101109.00;106062;1256;99971;-82
2023/08/21 05:38:51;;;;;;;20.20;18.10;;;;;;;22.01;100.00;101112.63;106173;1257;97709;-83
2023/08/21 05:41:37;;;;;;;21.80;19.30;;;;;;;22.04;100.00;101123.04;106044;1263;96593;-82
2023/08/21 05:44:22;;;;;;;21.90;18.70;;;;;;;22.04;100.00;101116.27;106062;1261;97136;-83
2023/08/21 05:47:08;;;;;;;19.40;17.40;;;;;;;22.02;100.00;101107.11;105975;1257;100066;-85
2023/08/21 05:49:53;;;;;;;20.40;18.40;;;;;;;21.96;100.00;101100.59;105873;1261;100353;-84
2023/08/21 05:52:39;;;;;;;19.90;17.90;;;;;;;21.92;100.00;101110.55;105918;1264;99155;-83
2023/08/21 05:55:27;;;;;;;21.50;18.00;;;;;;;21.95;100.00;101112.78;105820;1263;96654;-83
2023/08/21 05:58:12;;;;;;;23.20;19.00;;;;;;;21.99;100.00;101117.39;106078;1255;96500;-83
2023/08/21 06:00:58;;;;;;;21.60;18.70;;;;;;;22.00;100.00;101121.67;105989;1259;100073;-84
2023/08/21 06:03:44;;;;;;;20.60;18.40;;;;;;;22.01;100.00;101120.80;105902;1261;99047;-82
2023/08/21 06:06:43;;;;;;;20.80;18.40;;;;;;;22.03;100.00;101123.17;105742;1257;107702;-82
2023/08/21 06:09:31;;;;;;;21.20;19.10;;;;;;;22.06;100.00;101125.50;106068;1261;96626;-82
2023/08/21 06:12:18;;;;;;;20.70;18.50;;;;;;;22.09;100.00;101125.84;106149;1261;96535;-82
2023/08/21 06:15:05;;;;;;;20.50;18.50;;;;;;;22.14;100.00;101130.83;105889;1257;100791;-81
2023/08/21 06:17:50;;;;;;;21.20;19.10;;;;;;;22.20;100.00;101139.74;105787;1257;100441;-83
2023/08/21 06:20:35;;;;;;;21.10;18.70;;;;;;;22.27;100.00;101149.02;105964;1258;98576;-83
2023/08/21 06:23:21;;;;;;;29.70;26.50;;;;;;;22.34;100.00;101160.39;106028;1262;96729;-83
2023/08/21 06:26:07;;;;;;;21.80;19.50;;;;;;;22.39;100.00;101167.55;106345;1259;96575;-85
2023/08/21 06:28:52;;;;;;;22.90;20.60;;;;;;;22.42;100.00;101173.55;106022;1260;101290;-83
2023/08/21 06:31:38;;;;;;;24.70;20.00;;;;;;;22.46;100.00;101178.31;105721;1257;99888;-83
2023/08/21 06:34:24;;;;;;;23.50;20.30;;;;;;;22.51;100.00;101184.81;105832;1261;97785;-84
2023/08/21 06:37:10;;;;;;;21.70;19.40;;;;;;;22.55;100.00;101186.95;105879;1257;96675;-84
2023/08/21 06:39:56;;;;;;;21.80;19.60;;;;;;;22.59;100.00;101181.90;106013;1260;98295;-84
2023/08/21 06:42:41;;;;;;;21.70;19.60;;;;;;;22.61;100.00;101177.09;106097;1258;100069;-84
2023/08/21 06:45:30;;;;;;;21.50;18.90;;;;;;;22.62;100.00;101183.70;105886;1259;108788;-83
2023/08/21 06:48:18;;;;;;;20.20;17.60;;;;;;;22.66;100.00;101191.40;105731;1256;98807;-82
2023/08/21 06:51:04;;;;;;;21.40;18.50;;;;;;;22.72;100.00;101197.71;105752;1259;97940;-83
2023/08/21 06:53:53;;;;;;;20.20;18.30;;;;;;;22.76;100.00;101201.94;105846;1259;97743;-83
2023/08/21 06:56:39;;;;;;;20.10;17.30;;;;;;;22.75;100.00;101212.56;105868;1261;100104;-83
2023/08/21 06:59:24;;;;;;;22.20;18.20;;;;;;;22.75;100.00;101217.80;105920;1260;100128;-83
2023/08/21 07:02:10;;;;;;;19.40;17.40;;;;;;;22.74;100.00;101208.00;105992;1260;98477;-81
2023/08/21 07:04:56;;;;;;;18.10;16.20;;;;;;;22.72;100.00;101208.27;105949;1258;96522;-82
2023/08/21 07:07:41;;;;;;;19.70;17.30;;;;;;;22.70;100.00;101214.90;105924;1257;96583;-82
2023/08/21 07:10:27;;;;;;;18.90;17.20;;;;;;;22.70;100.00;101215.22;105896;1260;100180;-83
2023/08/21 07:13:12;;;;;;;18.70;16.80;;;;;;;22.73;100.00;101211.50;105817;1258;99144;-83
2023/08/21 07:15:57;;;;;;;19.90;16.50;;;;;;;22.78;100.00;101210.11;105856;1257;97798;-82
2023/08/21 07:18:43;;;;;;;17.90;15.80;;;;;;;22.80;100.00;101211.70;106092;1260;96387;-83
2023/08/21 07:21:28;;;;;;;17.90;15.60;;;;;;;22.80;100.00;101213.50;105793;1261;96575;-82
2023/08/21 07:24:14;;;;;;;17.70;15.80;;;;;;;22.81;100.00;101211.63;106129;1257;100091;-82
2023/08/21 07:26:59;;;;;;;17.30;15.10;;;;;;;22.85;99.97;101209.92;106194;1259;99065;-83
2023/08/21 07:29:45;;;;;;;18.20;15.40;;;;;;;22.90;99.97;101204.85;106143;1261;97814;-82
2023/08/21 07:32:30;;;;;;;17.90;15.70;;;;;;;22.97;99.97;101207.02;105984;1256;96704;-83
2023/08/21 07:35:15;;;;;;;19.90;16.30;;;;;;;23.01;99.77;101206.14;105958;1255;98361;-83
2023/08/21 07:38:02;;;;;;;18.70;16.70;;;;;;;23.08;99.89;101208.14;105802;1255;100033;-84
2023/08/21 07:40:47;;;;;;;17.60;15.90;;;;;;;23.12;99.56;101205.25;105871;1258;100460;-83
2023/08/21 07:43:33;;;;;;;17.30;15.40;;;;;;;23.17;99.59;101207.11;105983;1255;98999;-84
2023/08/21 07:46:19;;;;;;;18.00;16.20;;;;;;;23.21;99.70;101207.58;105869;1259;96528;-82
2023/08/21 07:49:05;;;;;;;18.00;16.20;;;;;;;23.26;99.56;101201.30;105747;1263;96696;-83
2023/08/21 07:51:51;;;;;;;17.80;16.00;;;;;;;23.29;98.98;101204.56;105982;1261;100041;-84
2023/08/21 07:54:36;;;;;;;17.70;16.00;;;;;;;23.31;98.59;101204.48;106010;1261;100454;-83
2023/08/21 07:57:22;;;;;;;17.70;15.90;;;;;;;23.34;98.72;101204.23;106052;1258;98750;-82
2023/08/21 08:00:09;;;;;;;17.60;15.70;;;;;;;23.40;99.09;101203.36;105765;1263;96554;-82
2023/08/21 08:02:58;;;;;;;16.60;14.90;;;;;;;23.45;98.91;101196.70;105871;1256;96621;-83
2023/08/21 08:05:44;;;;;;;16.80;15.20;;;;;;;23.52;99.16;101196.50;105749;1257;101847;-83
2023/08/21 08:08:30;;;;;;;18.30;15.50;;;;;;;23.58;98.66;101191.58;106056;1258;100793;-83
2023/08/21 08:11:16;;;;;;;15.10;13.80;;;;;;;23.61;98.15;101191.83;106206;1257;106969;-84
2023/08/21 08:14:02;;;;;;;15.00;13.60;;;;;;;23.64;98.01;101188.32;105839;1261;97941;-83
2023/08/21 08:16:47;;;;;;;15.20;13.80;;;;;;;23.69;97.78;101188.08;105935;1263;96702;-84
2023/08/21 08:19:32;;;;;;;13.90;12.40;;;;;;;23.76;98.07;101185.80;106019;1257;100181;-83
2023/08/21 08:22:18;;;;;;;14.80;13.40;;;;;;;23.86;97.69;101176.48;105975;1258;99125;-82
2023/08/21 08:25:05;;;;;;;13.20;11.80;;;;;;;23.93;96.81;101173.09;105969;1260;97997;-83
2023/08/21 08:27:51;;;;;;;14.10;12.60;;;;;;;24.01;97.15;101170.70;105742;1259;96621;-84
2023/08/21 08:30:37;;;;;;;14.40;12.80;;;;;;;24.13;96.88;101174.70;105887;1255;97165;-82
2023/08/21 08:33:23;;;;;;;13.40;12.00;;;;;;;24.21;96.20;101171.16;105914;1258;101168;-83
2023/08/21 08:36:09;;;;;;;13.20;11.90;;;;;;;24.30;95.78;101167.61;105879;1260;99335;-82
2023/08/21 08:38:54;;;;;;;11.70;10.60;;;;;;;24.36;95.38;101168.74;105721;1258;97858;-83
2023/08/21 08:41:54;;;;;;;12.70;11.40;;;;;;;24.43;94.96;101163.64;106009;1256;96642;-83
2023/08/21 08:44:40;;;;;;;12.80;11.10;;;;;;;24.52;94.81;101164.63;106065;1258;96838;-84
2023/08/21 08:47:28;;;;;;;11.00;10.00;;;;;;;24.60;94.16;101165.88;105845;1261;100848;-84
2023/08/21 08:50:15;;;;;;;12.40;9.20;;;;;;;24.67;92.50;101164.98;105863;1259;100485;-84
2023/08/21 08:53:02;;;;;;;9.50;8.60;;;;;;;24.72;90.90;101163.27;105786;1263;99066;-83
2023/08/21 08:55:48;;;;;;;11.30;8.70;;;;;;;24.77;89.66;101160.96;105727;1257;97524;-83
2023/08/21 08:58:34;;;;;;;9.10;8.30;;;;;;;24.85;88.99;101157.61;105919;1259;97136;-84
2023/08/21 09:01:19;;;;;;;9.70;8.50;;;;;;;24.89;87.57;101155.75;105796;1258;100111;-84
2023/08/21 09:04:05;;;;;;;9.20;8.30;;;;;;;24.92;86.79;101157.52;105865;1263;100429;-84
2023/08/21 09:06:50;;;;;;;9.50;8.50;;;;;;;25.01;87.34;101155.14;105769;1261;99004;-85
2023/08/21 09:09:40;;;;;;;8.80;8.00;;;;;;;25.10;86.75;101156.23;105857;1255;96692;-84
2023/08/21 09:12:25;;;;;;;9.70;8.40;;;;;;;25.14;86.24;101157.88;105878;1261;98048;-84
2023/08/21 09:15:11;;;;;;;9.50;8.50;;;;;;;25.19;85.80;101156.80;105865;1257;100019;-83
2023/08/21 09:17:57;;;;;;;9.30;8.30;;;;;;;25.24;85.36;101155.49;105795;1257;100569;-82
2023/08/21 09:20:43;;;;;;;8.90;8.00;;;;;;;25.28;84.40;101152.65;105947;1263;97821;-83
2023/08/21 09:23:28;;;;;;;8.20;7.40;;;;;;;25.32;83.30;101150.64;105832;1263;96633;-84
2023/08/21 09:26:21;;;;;;;7.90;7.20;;;;;;;25.38;82.43;101152.57;105874;1260;96675;-85
2023/08/21 09:29:07;;;;;;;8.90;8.00;;;;;;;25.44;81.94;101145.53;105985;1257;100138;-84
2023/08/21 09:31:56;;;;;;;8.80;7.90;;;;;;;25.48;81.67;101140.12;106009;1258;99140;-83
2023/08/21 09:34:42;;;;;;;6.80;6.20;;;;;;;25.56;80.81;101140.11;105914;1261;97820;-84
2023/08/21 09:37:31;;;;;;;6.90;6.30;;;;;;;25.62;77.98;101136.89;105701;1263;96832;-83
2023/08/21 09:40:17;;;;;;;8.80;6.60;;;;;;;25.68;76.94;101130.92;105823;1258;96713;-84
2023/08/21 09:43:03;;;;;;;6.90;5.80;;;;;;;25.74;75.94;101131.78;105837;1256;100747;-83
2023/08/21 09:45:55;;;;;;;5.50;5.00;;;;;;;25.79;75.25;101131.73;106173;1258;99779;-84
2023/08/21 09:48:41;;;;;;;5.20;4.70;;;;;;;25.84;72.92;101129.82;106098;1264;98513;-84
2023/08/21 09:51:27;;;;;;;7.90;4.80;;;;;;;25.90;71.69;101129.98;105950;1257;96525;-84
2023/08/21 09:54:14;;;;;;;5.00;4.00;;;;;;;25.95;69.81;101132.45;106155;1262;96471;-84
2023/08/21 09:57:02;;;;;;;5.30;4.80;;;;;;;26.00;69.44;101128.77;105972;1258;100168;-85
2023/08/21 09:59:52;;;;;;;4.40;4.00;;;;;;;26.08;68.05;101129.72;106201;1260;100365;-85
2023/08/21 10:02:38;;;;;;;4.30;3.90;;;;;;;26.14;67.00;101133.41;105734;1261;99101;-83
2023/08/21 10:05:23;;;;;;;4.90;3.60;;;;;;;26.18;66.41;101135.98;105740;1261;96621;-83
2023/08/21 10:08:09;;;;;;;6.50;3.60;;;;;;;26.24;65.33;101138.66;105856;1261;97243;-83
2023/08/21 10:10:56;;;;;;;4.70;4.30;;;;;;;26.29;64.85;101136.90;105757;1261;100189;-85
2023/08/21 10:13:42;;;;;;;4.10;3.70;;;;;;;26.35;64.30;101138.80;105802;1261;99128;-86
2023/08/21 10:16:27;;;;;;;4.20;3.80;;;;;;;26.39;63.44;101138.63;105600;1263;97851;-84
2023/08/21 10:19:17;;;;;;;4.20;3.80;;;;;;;26.42;62.61;101139.52;105795;1255;96593;-85
2023/08/21 10:22:03;;;;;;;6.00;4.20;;;;;;;26.43;61.66;101136.70;105759;1261;96478;-84
2023/08/21 10:24:50;;;;;;;5.00;3.90;;;;;;;26.41;60.84;101136.71;105884;1261;101806;-83
2023/08/21 10:27:35;;;;;;;4.30;3.90;;;;;;;26.41;60.23;101135.94;105688;1261;99599;-83
2023/08/21 10:30:23;;;;;;;7.20;4.30;;;;;;;26.43;59.99;101133.95;105726;1266;98559;-83
2023/08/21 10:33:08;;;;;;;5.50;4.20;;;;;;;26.48;59.44;101134.70;105894;1264;97292;-83
2023/08/21 10:35:54;;;;;;;3.90;3.60;;;;;;;26.52;58.86;101134.42;105859;1265;96813;-84
2023/08/21 10:38:58;;;;;;;4.40;4.00;;;;;;;26.56;58.41;101133.70;106011;1259;101272;-84
2023/08/21 10:42:06;;;;;;;4.00;3.60;;;;;;;26.60;57.60;101138.69;106011;1257;100463;-83
2023/08/21 10:44:56;;;;;;;5.80;3.60;;;;;;;26.67;57.60;101138.88;106099;1260;98959;-84
2023/08/21 10:47:41;;;;;;;3.70;3.40;;;;;;;26.74;55.52;101131.42;105570;1263;97952;-85
2023/08/21 10:50:26;;;;;;;5.90;3.60;;;;;;;26.80;55.00;101132.65;105697;1261;98064;-84
2023/08/21 10:53:13;;;;;;;5.60;3.30;;;;;;;26.87;55.34;101135.33;105734;1257;101458;-82
2023/08/21 10:56:04;;;;;;;4.80;3.00;;;;;;;26.95;54.75;101133.80;105837;1264;100445;-82
2023/08/21 10:58:51;;;;;;;2.80;2.50;;;;;;;27.02;52.71;101133.83;105690;1263;99141;-83
2023/08/21 11:01:44;;;;;;;3.00;2.30;;;;;;;27.07;51.74;101130.33;105710;1264;98475;-83
2023/08/21 11:04:39;;;;;;;2.90;2.10;;;;;;;27.15;51.15;101131.84;105908;1259;98344;-84
2023/08/21 11:07:32;;;;;;;4.90;2.30;;;;;;;27.23;50.15;101135.20;105843;1257;102953;-84
2023/08/21 11:10:22;;;;;;;5.10;3.00;;;;;;;27.24;49.23;101138.05;106111;1258;99203;-88
2023/08/21 11:13:08;;;;;;;2.70;2.10;;;;;;;27.25;49.95;101135.30;106071;1264;97950;-87
2023/08/21 11:16:02;;;;;;;2.80;2.20;;;;;;;27.28;50.03;101136.98;105926;1258;98500;-85
2023/08/21 11:18:48;;;;;;;2.90;2.20;;;;;;;27.25;49.43;101136.95;105966;1258;97993;-83
2023/08/21 11:21:33;;;;;;;5.70;2.60;;;;;;;27.18;48.86;101134.73;105950;1258;102716;-84
2023/08/21 11:24:18;;;;;;;3.70;2.40;;;;;;;27.13;49.78;101135.85;105969;1259;100431;-85
2023/08/21 11:27:09;;;;;;;5.60;2.30;;;;;;;27.15;49.63;101132.66;105691;1257;98523;-84
2023/08/21 11:29:55;;;;;;;5.70;2.50;;;;;;;27.16;49.33;101132.44;105917;1257;97883;-83
2023/08/21 11:32:40;;;;;;;3.00;2.30;;;;;;;27.19;49.30;101128.41;106300;1263;97829;-85
2023/08/21 11:35:26;;;;;;;4.10;2.40;;;;;;;27.23;49.36;101127.77;105801;1258;101403;-84
2023/08/21 11:38:17;;;;;;;14.10;3.50;;;;;;;27.29;49.37;101128.17;105888;1263;99200;-83
2023/08/21 11:41:05;;;;;;;2.50;1.80;;;;;;;27.36;49.08;101131.79;105689;1258;98167;-83
2023/08/21 11:43:51;;;;;;;4.40;1.90;;;;;;;27.39;47.75;101131.15;105953;1263;97942;-83
2023/08/21 11:46:36;;;;;;;3.60;1.90;;;;;;;27.41;47.59;101128.95;105835;1261;97953;-83
2023/08/21 11:49:23;;;;;;;3.40;1.70;;;;;;;27.41;46.58;101126.48;105816;1258;103101;-83
2023/08/21 11:52:11;;;;;;;2.20;1.80;;;;;;;27.41;46.65;101125.49;105759;1259;107739;-82
2023/08/21 11:54:56;;;;;;;3.60;1.70;;;;;;;27.44;47.14;101120.40;105790;1260;99247;-83
2023/08/21 11:57:50;;;;;;;2.70;2.10;;;;;;;27.50;47.51;101115.18;105784;1258;98754;-82
2023/08/21 12:00:35;;;;;;;3.90;1.90;;;;;;;27.59;47.71;101116.23;106016;1258;98420;-83
2023/08/21 12:03:21;;;;;;;3.40;2.20;;;;;;;27.66;47.48;101117.55;105737;1264;101473;-82
2023/08/21 12:06:07;;;;;;;5.70;2.30;;;;;;;27.69;46.90;101114.27;105800;1258;99298;-83
2023/08/21 12:08:53;;;;;;;4.90;1.70;;;;;;;27.75;46.89;101116.55;105752;1263;97963;-83
2023/08/21 12:11:38;;;;;;;4.40;2.20;;;;;;;27.79;46.73;101123.27;105819;1257;98020;-82
2023/08/21 12:14:24;;;;;;;3.70;1.90;;;;;;;27.80;46.63;101120.45;105687;1257;99136;-83
2023/08/21 12:17:10;;;;;;;5.40;1.60;;;;;;;27.83;46.63;101117.63;105826;1259;101374;-82
2023/08/21 12:19:56;;;;;;;3.60;1.90;;;;;;;27.82;46.51;101119.33;106002;1258;99287;-83
2023/08/21 12:22:42;;;;;;;3.60;1.90;;;;;;;27.80;46.37;101121.88;105847;1258;97957;-83
2023/08/21 12:25:27;;;;;;;4.50;1.70;;;;;;;27.87;46.79;101115.50;105851;1263;97978;-83
2023/08/21 12:28:13;;;;;;;2.80;1.70;;;;;;;27.97;47.03;101119.56;105735;1263;97806;-83